sensor_id;sensor_type;location;lat;lon;timestamp;temperature;humidity
41080;DHT22;26826;50.718;7.114;2023-04-29T00:06:31;13.60;99.90
41080;DHT22;26826;50.718;7.114;2023-04-29T00:16:32;13.50;99.90
41080;DHT22;26826;50.718;7.114;2023-04-29T00:26:33;13.30;99.90
41080;DHT22;26826;50.718;7.114;2023-04-29T00:36:34;13.30;99.90
41080;DHT22;26826;50.718;7.114;2023-04-29T00:46:34;13.20;99.90
41080;DHT22;26826;50.718;7.114;2023-04-29T00:56:36;13.10;99.90
41080;DHT22;26826;50.718;7.114;2023-04-29T01:06:47;13.00;99.90
41080;DHT22;26826;50.718;7.114;2023-04-29T01:16:51;12.80;99.90
41080;DHT22;26826;50.718;7.114;2023-04-29T01:27:01;12.80;99.90
41080;DHT22;26826;50.718;7.114;2023-04-29T01:37:13;12.70;99.90
41080;DHT22;26826;50.718;7.114;2023-04-29T01:47:17;12.60;99.90
41080;DHT22;26826;50.718;7.114;2023-04-29T01:57:18;12.50;99.90
41080;DHT22;26826;50.718;7.114;2023-04-29T02:07:18;12.40;99.90
41080;DHT22;26826;50.718;7.114;2023-04-29T02:17:19;12.40;99.90
41080;DHT22;26826;50.718;7.114;2023-04-29T02:27:19;12.30;99.90
41080;DHT22;26826;50.718;7.114;2023-04-29T02:37:20;12.20;99.90
41080;DHT22;26826;50.718;7.114;2023-04-29T02:47:21;12.10;99.90
41080;DHT22;26826;50.718;7.114;2023-04-29T02:57:21;11.90;99.90
41080;DHT22;26826;50.718;7.114;2023-04-29T03:07:25;11.90;99.90
41080;DHT22;26826;50.718;7.114;2023-04-29T03:17:25;11.90;99.90
41080;DHT22;26826;50.718;7.114;2023-04-29T03:27:26;11.80;99.90
41080;DHT22;26826;50.718;7.114;2023-04-29T03:37:27;11.80;99.90
41080;DHT22;26826;50.718;7.114;2023-04-29T03:47:27;11.70;99.90
41080;DHT22;26826;50.718;7.114;2023-04-29T03:57:28;11.70;99.90
41080;DHT22;26826;50.718;7.114;2023-04-29T04:07:28;11.60;99.90
41080;DHT22;26826;50.718;7.114;2023-04-29T04:17:29;11.50;99.90
41080;DHT22;26826;50.718;7.114;2023-04-29T04:27:29;11.30;99.90
41080;DHT22;26826;50.718;7.114;2023-04-29T04:37:30;11.00;99.90
41080;DHT22;26826;50.718;7.114;2023-04-29T04:47:30;10.80;99.90
41080;DHT22;26826;50.718;7.114;2023-04-29T04:57:31;10.60;99.90
41080;DHT22;26826;50.718;7.114;2023-04-29T05:07:32;10.40;99.90
41080;DHT22;26826;50.718;7.114;2023-04-29T05:17:35;10.30;99.90
41080;DHT22;26826;50.718;7.114;2023-04-29T05:27:35;10.40;99.90
41080;DHT22;26826;50.718;7.114;2023-04-29T05:37:36;10.30;99.90
41080;DHT22;26826;50.718;7.114;2023-04-29T05:47:36;10.20;99.90
41080;DHT22;26826;50.718;7.114;2023-04-29T05:57:37;10.00;99.90
41080;DHT22;26826;50.718;7.114;2023-04-29T06:07:38;10.00;99.90
41080;DHT22;26826;50.718;7.114;2023-04-29T06:17:38;9.90;99.90
41080;DHT22;26826;50.718;7.114;2023-04-29T06:47:46;10.00;99.90
41080;DHT22;26826;50.718;7.114;2023-04-29T06:57:46;10.10;99.90
41080;DHT22;26826;50.718;7.114;2023-04-29T07:07:47;10.10;99.90
41080;DHT22;26826;50.718;7.114;2023-04-29T07:28:49;10.30;99.90
41080;DHT22;26826;50.718;7.114;2023-04-29T07:38:50;10.50;99.90
41080;DHT22;26826;50.718;7.114;2023-04-29T07:48:50;10.60;99.90
41080;DHT22;26826;50.718;7.114;2023-04-29T07:58:52;10.70;99.90
41080;DHT22;26826;50.718;7.114;2023-04-29T08:08:52;10.70;99.90
41080;DHT22;26826;50.718;7.114;2023-04-29T08:18:53;10.70;99.90
41080;DHT22;26826;50.718;7.114;2023-04-29T08:28:54;10.70;99.90
41080;DHT22;26826;50.718;7.114;2023-04-29T08:38:55;10.80;99.90
41080;DHT22;26826;50.718;7.114;2023-04-29T08:48:55;11.10;99.90
41080;DHT22;26826;50.718;7.114;2023-04-29T08:58:57;11.30;99.90
41080;DHT22;26826;50.718;7.114;2023-04-29T09:08:59;11.40;99.90
41080;DHT22;26826;50.718;7.114;2023-04-29T09:19:01;11.40;99.90
41080;DHT22;26826;50.718;7.114;2023-04-29T09:29:22;11.40;99.90
41080;DHT22;26826;50.718;7.114;2023-04-29T09:39:23;11.30;99.90
41080;DHT22;26826;50.718;7.114;2023-04-29T09:49:29;11.50;99.90
41080;DHT22;26826;50.718;7.114;2023-04-29T09:59:31;11.90;99.90
41080;DHT22;26826;50.718;7.114;2023-04-29T10:09:32;12.00;99.90
41080;DHT22;26826;50.718;7.114;2023-04-29T10:19:39;12.50;99.90
41080;DHT22;26826;50.718;7.114;2023-04-29T10:29:42;12.70;99.90
41080;DHT22;26826;50.718;7.114;2023-04-29T10:39:52;12.50;99.90
41080;DHT22;26826;50.718;7.114;2023-04-29T10:50:03;12.40;99.90
41080;DHT22;26826;50.718;7.114;2023-04-29T11:00:05;12.60;99.90
41080;DHT22;26826;50.718;7.114;2023-04-29T11:10:06;12.60;99.90
41080;DHT22;26826;50.718;7.114;2023-04-29T11:20:13;12.60;99.90
41080;DHT22;26826;50.718;7.114;2023-04-29T11:30:14;12.50;99.90
41080;DHT22;26826;50.718;7.114;2023-04-29T11:40:16;12.40;99.90
41080;DHT22;26826;50.718;7.114;2023-04-29T11:50:17;12.40;99.90
41080;DHT22;26826;50.718;7.114;2023-04-29T12:00:19;12.30;99.90
41080;DHT22;26826;50.718;7.114;2023-04-29T12:10:20;12.30;99.90
41080;DHT22;26826;50.718;7.114;2023-04-29T12:20:21;12.30;99.90
41080;DHT22;26826;50.718;7.114;2023-04-29T12:30:21;12.20;99.90
41080;DHT22;26826;50.718;7.114;2023-04-29T12:40:22;12.20;99.90
41080;DHT22;26826;50.718;7.114;2023-04-29T12:50:31;12.20;99.90
41080;DHT22;26826;50.718;7.114;2023-04-29T13:00:32;12.40;99.90
41080;DHT22;26826;50.718;7.114;2023-04-29T13:10:34;12.30;99.90
41080;DHT22;26826;50.718;7.114;2023-04-29T13:20:35;12.30;99.90
41080;DHT22;26826;50.718;7.114;2023-04-29T13:30:36;12.40;99.90
41080;DHT22;26826;50.718;7.114;2023-04-29T13:40:36;12.50;99.90
41080;DHT22;26826;50.718;7.114;2023-04-29T13:50:37;12.90;99.90
41080;DHT22;26826;50.718;7.114;2023-04-29T14:00:40;13.10;99.90
41080;DHT22;26826;50.718;7.114;2023-04-29T14:10:41;13.30;99.90
41080;DHT22;26826;50.718;7.114;2023-04-29T14:20:42;13.20;99.90
41080;DHT22;26826;50.718;7.114;2023-04-29T14:30:42;13.50;99.90
41080;DHT22;26826;50.718;7.114;2023-04-29T14:40:43;13.80;99.90
41080;DHT22;26826;50.718;7.114;2023-04-29T14:50:43;14.00;99.90
41080;DHT22;26826;50.718;7.114;2023-04-29T15:00:44;14.10;99.90
41080;DHT22;26826;50.718;7.114;2023-04-29T15:10:45;14.00;99.90
41080;DHT22;26826;50.718;7.114;2023-04-29T15:20:46;14.30;99.90
41080;DHT22;26826;50.718;7.114;2023-04-29T15:41:29;14.40;99.90
41080;DHT22;26826;50.718;7.114;2023-04-29T15:51:29;14.20;99.90
41080;DHT22;26826;50.718;7.114;2023-04-29T16:01:30;14.00;99.90
41080;DHT22;26826;50.718;7.114;2023-04-29T16:11:31;13.80;99.90
41080;DHT22;26826;50.718;7.114;2023-04-29T16:21:31;13.80;99.90
41080;DHT22;26826;50.718;7.114;2023-04-29T16:31:33;13.70;99.90
41080;DHT22;26826;50.718;7.114;2023-04-29T16:41:34;13.70;99.90
41080;DHT22;26826;50.718;7.114;2023-04-29T16:51:34;13.70;99.90
41080;DHT22;26826;50.718;7.114;2023-04-29T17:01:35;13.70;99.90
41080;DHT22;26826;50.718;7.114;2023-04-29T17:11:36;13.80;99.90
41080;DHT22;26826;50.718;7.114;2023-04-29T17:21:36;13.80;99.90
41080;DHT22;26826;50.718;7.114;2023-04-29T17:31:37;13.80;99.90
41080;DHT22;26826;50.718;7.114;2023-04-29T17:41:53;13.70;99.90
41080;DHT22;26826;50.718;7.114;2023-04-29T17:51:54;13.60;99.90
41080;DHT22;26826;50.718;7.114;2023-04-29T18:01:55;13.50;99.90
41080;DHT22;26826;50.718;7.114;2023-04-29T18:11:55;13.40;99.90
41080;DHT22;26826;50.718;7.114;2023-04-29T18:21:56;13.30;99.90
41080;DHT22;26826;50.718;7.114;2023-04-29T18:31:58;13.20;99.90
41080;DHT22;26826;50.718;7.114;2023-04-29T18:41:58;13.10;99.90
41080;DHT22;26826;50.718;7.114;2023-04-29T18:51:59;13.00;99.90
41080;DHT22;26826;50.718;7.114;2023-04-29T19:02:00;12.90;99.90
41080;DHT22;26826;50.718;7.114;2023-04-29T19:12:01;12.60;99.90
41080;DHT22;26826;50.718;7.114;2023-04-29T19:22:05;12.40;99.90
41080;DHT22;26826;50.718;7.114;2023-04-29T19:32:06;12.10;99.90
41080;DHT22;26826;50.718;7.114;2023-04-29T19:42:07;11.90;99.90
41080;DHT22;26826;50.718;7.114;2023-04-29T19:52:07;11.80;99.90
41080;DHT22;26826;50.718;7.114;2023-04-29T20:02:08;11.60;99.90
41080;DHT22;26826;50.718;7.114;2023-04-29T20:12:08;11.60;99.90
41080;DHT22;26826;50.718;7.114;2023-04-29T20:22:09;11.50;99.90
41080;DHT22;26826;50.718;7.114;2023-04-29T20:32:10;11.40;99.90
41080;DHT22;26826;50.718;7.114;2023-04-29T20:42:10;11.20;99.90
41080;DHT22;26826;50.718;7.114;2023-04-29T20:52:11;11.00;99.90
41080;DHT22;26826;50.718;7.114;2023-04-29T21:02:12;11.10;99.90
41080;DHT22;26826;50.718;7.114;2023-04-29T21:12:12;10.90;99.90
41080;DHT22;26826;50.718;7.114;2023-04-29T21:22:14;10.80;99.90
41080;DHT22;26826;50.718;7.114;2023-04-29T21:32:14;10.70;99.90
41080;DHT22;26826;50.718;7.114;2023-04-29T21:42:20;10.70;99.90
41080;DHT22;26826;50.718;7.114;2023-04-29T21:52:24;10.70;99.90
41080;DHT22;26826;50.718;7.114;2023-04-29T22:02:25;10.50;99.90
41080;DHT22;26826;50.718;7.114;2023-04-29T22:12:27;10.50;99.90
41080;DHT22;26826;50.718;7.114;2023-04-29T22:22:27;10.40;99.90
41080;DHT22;26826;50.718;7.114;2023-04-29T22:32:28;10.50;99.90
41080;DHT22;26826;50.718;7.114;2023-04-29T22:42:28;10.60;99.90
41080;DHT22;26826;50.718;7.114;2023-04-29T22:52:29;10.60;99.90
41080;DHT22;26826;50.718;7.114;2023-04-29T23:02:31;10.60;99.90
41080;DHT22;26826;50.718;7.114;2023-04-29T23:12:32;10.60;99.90
41080;DHT22;26826;50.718;7.114;2023-04-29T23:22:32;10.50;99.90
41080;DHT22;26826;50.718;7.114;2023-04-29T23:32:33;10.40;99.90
41080;DHT22;26826;50.718;7.114;2023-04-29T23:42:34;10.50;99.90
41080;DHT22;26826;50.718;7.114;2023-04-29T23:52:34;10.30;99.90
